Time;durP1;ratioP1;P1;durP2;ratioP2;P2;SDS_P1;SDS_P2;PMS_P1;PMS_P2;Temp;Humidity;BMP_temperature;BMP_pressure;BME280_temperature;BME280_humidity;BME280_pressure;Samples;Min_cycle;Max_cycle;Signal;HPM_P1;HPM_P2
2021/01/15 00:02:14;;;;;;;11.57;5.50;;;1.00;99.90;;;;;;4931877;29;20514;-95
2021/01/15 00:04:40;;;;;;;12.48;5.82;;;1.00;99.90;;;;;;4938508;29;20032;-94
2021/01/15 00:07:06;;;;;;;14.60;6.20;;;1.00;99.90;;;;;;4939896;29;20034;-96
2021/01/15 00:09:32;;;;;;;14.02;6.47;;;1.00;99.90;;;;;;4947261;29;20032;-94
2021/01/15 00:12:01;;;;;;;11.95;5.47;;;1.10;99.90;;;;;;4947212;29;20075;-94
2021/01/15 00:14:27;;;;;;;12.48;6.10;;;1.10;99.90;;;;;;4949720;29;20130;-94
2021/01/15 00:16:53;;;;;;;16.45;6.30;;;1.10;99.90;;;;;;4938728;29;20027;-94
2021/01/15 00:19:20;;;;;;;17.67;6.30;;;1.10;99.90;;;;;;4945371;29;20042;-94
2021/01/15 00:21:49;;;;;;;10.90;5.13;;;1.20;99.90;;;;;;4944106;29;20032;-95
2021/01/15 00:24:22;;;;;;;13.05;6.05;;;1.20;99.90;;;;;;4929317;29;20405;-94
2021/01/15 00:26:48;;;;;;;11.68;6.22;;;1.20;99.90;;;;;;4946609;29;20150;-96
2021/01/15 00:29:16;;;;;;;16.30;6.15;;;1.20;99.90;;;;;;5211485;23;20063;-95
2021/01/15 00:31:47;;;;;;;16.73;7.15;;;1.30;99.90;;;;;;4948418;29;20055;-95
2021/01/15 00:34:14;;;;;;;13.73;6.93;;;1.30;99.90;;;;;;4948425;29;20039;-93
2021/01/15 00:36:45;;;;;;;16.80;6.05;;;1.30;99.90;;;;;;4947775;29;20341;-94
2021/01/15 00:39:16;;;;;;;12.80;7.03;;;1.30;99.90;;;;;;4947142;29;20038;-93
2021/01/15 00:41:44;;;;;;;15.25;6.57;;;1.40;99.90;;;;;;4948667;29;20581;-94
2021/01/15 00:44:13;;;;;;;12.00;6.00;;;1.40;99.90;;;;;;4955218;29;20023;-94
2021/01/15 00:46:45;;;;;;;15.30;7.57;;;1.30;99.90;;;;;;4953245;29;20034;-93
2021/01/15 00:49:14;;;;;;;18.00;7.65;;;1.40;99.90;;;;;;4945715;29;20035;-94
2021/01/15 00:51:52;;;;;;;17.30;7.90;;;1.40;99.90;;;;;;4946050;29;20024;-94
2021/01/15 00:54:21;;;;;;;17.25;7.97;;;1.50;99.90;;;;;;4945845;29;20038;-95
2021/01/15 00:56:47;;;;;;;20.27;9.77;;;1.50;99.90;;;;;;4945601;29;20035;-94
2021/01/15 00:59:13;;;;;;;19.05;9.68;;;1.50;99.90;;;;;;4945896;29;20142;-94
2021/01/15 01:01:41;;;;;;;12.73;6.80;;;1.50;99.90;;;;;;4946258;29;20089;-94
2021/01/15 01:04:09;;;;;;;20.80;8.95;;;1.40;99.90;;;;;;4943116;29;20062;-93
2021/01/15 01:06:38;;;;;;;20.02;8.63;;;1.50;99.90;;;;;;4942615;29;20032;-94
2021/01/15 01:09:04;;;;;;;19.52;8.48;;;1.40;99.90;;;;;;4941775;29;20039;-93
2021/01/15 01:11:31;;;;;;;18.02;8.18;;;1.50;99.90;;;;;;4942546;29;20118;-94
2021/01/15 01:13:58;;;;;;;21.05;8.77;;;1.50;99.90;;;;;;4941978;29;20211;-95
2021/01/15 01:16:27;;;;;;;21.15;8.30;;;1.50;99.90;;;;;;4942943;29;20036;-94
2021/01/15 01:18:54;;;;;;;21.08;8.48;;;1.50;99.90;;;;;;4942367;29;20458;-94
2021/01/15 01:21:26;;;;;;;14.45;7.55;;;1.50;99.90;;;;;;4941335;29;20158;-95
2021/01/15 01:23:53;;;;;;;12.40;7.18;;;1.50;99.90;;;;;;4940979;29;20062;-95
2021/01/15 01:26:19;;;;;;;16.30;7.45;;;1.50;99.90;;;;;;4940292;29;20279;-95
2021/01/15 01:28:46;;;;;;;15.10;8.10;;;1.50;99.90;;;;;;4939920;29;21052;-94
2021/01/15 01:31:13;;;;;;;13.55;7.30;;;1.50;99.90;;;;;;4939759;29;20071;-95
2021/01/15 01:33:43;;;;;;;15.88;7.30;;;1.50;99.90;;;;;;4940592;29;20055;-95
2021/01/15 01:36:09;;;;;;;13.05;6.90;;;1.50;99.90;;;;;;4940065;29;20260;-95
2021/01/15 01:38:37;;;;;;;16.27;6.65;;;1.50;99.90;;;;;;4940807;29;20032;-95
2021/01/15 01:41:03;;;;;;;13.73;6.65;;;1.50;99.90;;;;;;4928714;29;20087;-96
2021/01/15 01:43:28;;;;;;;12.65;6.22;;;1.50;99.90;;;;;;4928476;29;20415;-94
2021/01/15 01:46:02;;;;;;;13.98;6.60;;;1.50;99.90;;;;;;4917774;29;20538;-94
2021/01/15 01:48:28;;;;;;;10.05;5.78;;;1.50;99.90;;;;;;4918010;29;20028;-95
2021/01/15 01:50:54;;;;;;;11.25;5.63;;;1.40;99.90;;;;;;4934143;29;20062;-95
2021/01/15 01:53:27;;;;;;;12.55;5.47;;;1.50;99.90;;;;;;4915553;29;20020;-96
2021/01/15 01:55:56;;;;;;;11.27;5.35;;;1.50;99.90;;;;;;4912498;29;20036;-95
2021/01/15 01:58:23;;;;;;;10.05;5.68;;;1.40;99.90;;;;;;4913734;29;20028;-94
2021/01/15 02:00:58;;;;;;;11.80;5.55;;;1.40;99.90;;;;;;4918295;29;20032;-95
2021/01/15 02:03:27;;;;;;;11.90;5.95;;;1.40;99.90;;;;;;4930722;29;20035;-95
2021/01/15 02:05:56;;;;;;;11.50;5.53;;;1.30;99.90;;;;;;4914634;29;20066;-96
2021/01/15 02:08:22;;;;;;;11.75;5.90;;;1.30;99.90;;;;;;4934369;29;20516;-95
2021/01/15 02:11:07;;;;;;;14.93;6.88;;;1.30;99.90;;;;;;4933890;29;20091;-96
2021/01/15 02:14:10;;;;;;;10.02;5.35;;;1.30;99.90;;;;;;4913778;29;20035;-94
2021/01/15 02:16:37;;;;;;;12.45;5.57;;;1.30;99.90;;;;;;4928883;29;20031;-95
2021/01/15 02:19:24;;;;;;;9.10;5.25;;;1.20;99.90;;;;;;4925600;29;20220;-94
2021/01/15 02:22:14;;;;;;;13.02;6.32;;;1.20;99.90;;;;;;4928682;29;20087;-94
2021/01/15 02:24:58;;;;;;;15.52;6.68;;;1.20;99.90;;;;;;4929643;29;20481;-95
2021/01/15 02:27:38;;;;;;;16.42;7.53;;;1.10;99.90;;;;;;4933123;29;20482;-96
2021/01/15 02:30:39;;;;;;;18.45;7.70;;;1.20;99.90;;;;;;4929000;29;20051;-95
2021/01/15 02:33:45;;;;;;;14.93;6.90;;;1.10;99.90;;;;;;4860123;29;20038;-95
2021/01/15 02:36:26;;;;;;;14.50;7.00;;;1.10;99.90;;;;;;4856613;29;20053;-94
2021/01/15 02:39:03;;;;;;;13.38;6.68;;;1.10;99.90;;;;;;4854561;29;20026;-95
2021/01/15 02:41:29;;;;;;;14.93;7.35;;;1.10;99.90;;;;;;4832351;29;20034;-95
2021/01/15 02:44:05;;;;;;;13.48;7.22;;;1.20;99.90;;;;;;4833287;29;20045;-94
2021/01/15 02:46:48;;;;;;;17.08;8.02;;;1.20;99.90;;;;;;4849434;29;20034;-95
2021/01/15 02:49:16;;;;;;;18.35;8.98;;;1.10;99.90;;;;;;4867675;29;20041;-95
2021/01/15 02:51:43;;;;;;;14.73;7.80;;;1.00;99.90;;;;;;4838785;29;20078;-96
2021/01/15 02:54:14;;;;;;;19.80;10.77;;;1.00;99.90;;;;;;4838270;29;20044;-95
2021/01/15 02:56:40;;;;;;;20.95;9.30;;;1.00;99.90;;;;;;4836948;29;20050;-96
2021/01/15 02:59:08;;;;;;;19.45;11.05;;;1.00;99.90;;;;;;4860658;29;20022;-96
2021/01/15 03:01:48;;;;;;;22.60;10.05;;;1.00;99.90;;;;;;4848399;29;20042;-92
2021/01/15 03:04:37;;;;;;;18.20;9.50;;;1.00;99.90;;;;;;4864924;29;20042;-95
2021/01/15 03:07:04;;;;;;;19.50;10.05;;;0.90;99.90;;;;;;4848723;29;20038;-94
2021/01/15 03:09:37;;;;;;;25.02;11.43;;;0.80;99.90;;;;;;4884046;29;20047;-93
2021/01/15 03:12:05;;;;;;;20.23;10.75;;;0.80;99.90;;;;;;4911236;29;20035;-94
2021/01/15 03:14:35;;;;;;;20.88;10.77;;;0.80;99.90;;;;;;4925860;29;20071;-96
2021/01/15 03:17:05;;;;;;;18.13;9.73;;;0.70;99.90;;;;;;4931152;29;20028;-95
2021/01/15 03:19:33;;;;;;;22.52;11.02;;;0.60;99.90;;;;;;4933960;29;20503;-94
2021/01/15 03:22:22;;;;;;;19.83;10.30;;;0.70;99.90;;;;;;4931239;29;20028;-94
2021/01/15 03:25:00;;;;;;;19.95;10.55;;;0.70;99.90;;;;;;4909597;29;20044;-95
2021/01/15 03:27:57;;;;;;;20.80;10.07;;;0.60;99.90;;;;;;4908354;29;20067;-95
2021/01/15 03:30:25;;;;;;;14.02;7.05;;;0.60;99.90;;;;;;4907248;29;20055;-94
2021/01/15 03:33:00;;;;;;;11.80;6.63;;;0.60;99.90;;;;;;4907327;29;20036;-94
2021/01/15 03:35:27;;;;;;;9.73;4.60;;;0.60;99.90;;;;;;4924473;29;20032;-95
2021/01/15 03:38:06;;;;;;;5.40;3.70;;;0.50;99.90;;;;;;4923042;29;20634;-95
2021/01/15 03:40:33;;;;;;;10.02;5.63;;;0.40;99.90;;;;;;4922938;29;20065;-94
2021/01/15 03:43:03;;;;;;;13.30;5.10;;;0.40;99.90;;;;;;4907422;29;20024;-95
2021/01/15 03:45:29;;;;;;;9.65;5.00;;;0.40;99.90;;;;;;4922697;29;20040;-94
2021/01/15 03:47:55;;;;;;;10.25;4.97;;;0.50;99.90;;;;;;4909608;29;20028;-94
2021/01/15 03:50:45;;;;;;;;;;;;;;;;;;;;;
2021/01/15 03:53:15;;;;;;;11.23;5.47;;;0.40;99.90;;;;;;4923839;29;20111;-92
2021/01/15 03:55:42;;;;;;;14.52;5.93;;;0.40;99.90;;;;;;4904965;29;20040;-94
2021/01/15 03:58:08;;;;;;;13.00;5.53;;;0.40;99.90;;;;;;4920930;29;20028;-94
2021/01/15 04:00:34;;;;;;;10.57;5.85;;;0.40;99.90;;;;;;4920008;29;20036;-93
2021/01/15 04:03:00;;;;;;;12.10;6.05;;;0.40;99.90;;;;;;4904802;29;20131;-95
2021/01/15 04:05:31;;;;;;;9.98;5.50;;;0.30;99.90;;;;;;4923157;29;20064;-93
2021/01/15 04:07:59;;;;;;;15.30;6.35;;;0.40;99.90;;;;;;4922845;29;20040;-94
2021/01/15 04:10:25;;;;;;;17.10;7.15;;;0.50;99.90;;;;;;4922595;29;20651;-94
2021/01/15 04:12:51;;;;;;;12.02;5.65;;;0.40;99.90;;;;;;4922543;29;20040;-93
2021/01/15 04:15:44;;;;;;;16.20;6.38;;;0.50;99.90;;;;;;4922657;29;20040;-94
2021/01/15 04:18:10;;;;;;;15.93;6.43;;;0.50;99.90;;;;;;4906191;29;20046;-94
2021/01/15 04:20:42;;;;;;;16.05;6.18;;;0.40;99.90;;;;;;4921548;29;20028;-93
2021/01/15 04:23:08;;;;;;;13.02;5.03;;;0.30;99.90;;;;;;4928603;29;20478;-94
2021/01/15 04:25:36;;;;;;;15.93;5.65;;;0.30;99.90;;;;;;4940228;29;20043;-93
2021/01/15 04:28:02;;;;;;;11.07;5.68;;;0.30;99.90;;;;;;4941257;29;20454;-94
2021/01/15 04:30:29;;;;;;;10.52;4.50;;;0.30;99.90;;;;;;4941579;29;20070;-93
2021/01/15 04:32:57;;;;;;;16.17;5.63;;;0.30;99.90;;;;;;4941591;29;20061;-93
2021/01/15 04:35:23;;;;;;;9.70;4.38;;;0.30;99.90;;;;;;4940226;29;20039;-94
2021/01/15 04:37:49;;;;;;;10.23;5.55;;;0.20;99.90;;;;;;4940242;29;20095;-94
2021/01/15 04:40:15;;;;;;;15.48;6.82;;;0.20;99.90;;;;;;4924013;29;20123;-93
2021/01/15 04:42:43;;;;;;;8.65;4.82;;;0.20;99.90;;;;;;4941282;29;20035;-93
2021/01/15 04:45:14;;;;;;;18.65;5.15;;;0.10;99.90;;;;;;4939667;29;20035;-93
2021/01/15 04:47:41;;;;;;;;;;;0.10;99.90;;;;;;4940069;29;20032;-93
2021/01/15 04:50:10;;;;;;;16.88;7.15;;;0.00;99.90;;;;;;4939195;29;20352;-94
2021/01/15 04:52:44;;;;;;;16.75;6.50;;;-0.10;99.90;;;;;;4939385;29;20031;-94
2021/01/15 04:55:21;;;;;;;15.48;6.57;;;-0.10;99.90;;;;;;4923525;29;20532;-93
2021/01/15 04:57:51;;;;;;;18.88;6.95;;;-0.10;99.90;;;;;;4939173;29;20461;-93
2021/01/15 05:00:22;;;;;;;20.45;5.32;;;-0.20;99.90;;;;;;4940489;29;20035;-95
2021/01/15 05:02:52;;;;;;;16.83;6.28;;;-0.20;99.90;;;;;;4940320;29;20035;-94
2021/01/15 05:05:44;;;;;;;17.50;5.60;;;-0.20;99.90;;;;;;4940176;29;20028;-93
2021/01/15 05:08:14;;;;;;;20.08;5.53;;;-0.20;99.90;;;;;;4926398;29;20024;-92
2021/01/15 05:10:56;;;;;;;16.10;4.72;;;-0.20;99.90;;;;;;4939474;29;20031;-93
2021/01/15 05:13:57;;;;;;;13.15;4.28;;;-0.30;99.90;;;;;;4924535;29;20027;-93
2021/01/15 05:28:22;;;;;;;26.30;5.35;;;-0.50;99.90;;;;;;5781427;23;20064;-93
2021/01/15 05:31:26;;;;;;;26.52;4.65;;;-0.60;99.90;;;;;;4889438;29;20037;-96
2021/01/15 05:34:08;;;;;;;11.80;4.85;;;-0.50;99.90;;;;;;4909032;29;20055;-94
2021/01/15 05:36:38;;;;;;;121.85;8.75;;;-0.40;99.90;;;;;;4906988;29;20044;-95
2021/01/15 05:39:16;;;;;;;74.22;8.50;;;-0.40;99.90;;;;;;4889837;29;20028;-94
2021/01/15 05:41:57;;;;;;;77.25;8.30;;;-0.40;99.90;;;;;;4886564;29;20033;-94
2021/01/15 05:44:37;;;;;;;53.33;7.15;;;-0.40;99.90;;;;;;4888898;29;20036;-93
2021/01/15 05:47:11;;;;;;;53.70;7.78;;;-0.50;99.90;;;;;;4886430;29;20044;-94
2021/01/15 05:50:20;;;;;;;24.58;6.60;;;-0.50;99.90;;;;;;4890664;29;20036;-95
2021/01/15 05:53:00;;;;;;;38.95;7.15;;;-0.50;99.90;;;;;;4887573;29;20028;-94
2021/01/15 05:55:32;;;;;;;89.97;7.38;;;-0.50;99.90;;;;;;4886216;29;20040;-94
2021/01/15 05:58:09;;;;;;;25.73;6.72;;;-0.50;99.90;;;;;;4885555;29;20043;-95
2021/01/15 06:00:44;;;;;;;84.97;9.02;;;-0.50;99.90;;;;;;4887136;29;20040;-95
2021/01/15 06:03:14;;;;;;;42.03;7.45;;;-0.50;99.90;;;;;;4903739;29;20029;-95
2021/01/15 06:05:58;;;;;;;106.90;8.00;;;-0.50;99.90;;;;;;4874108;29;20088;-95
2021/01/15 06:08:41;;;;;;;19.88;7.57;;;-0.60;99.90;;;;;;4890470;29;20035;-96
2021/01/15 06:11:27;;;;;;;24.23;7.10;;;-0.60;99.90;;;;;;4894405;29;20029;-94
2021/01/15 06:14:00;;;;;;;71.85;7.80;;;-0.60;99.90;;;;;;4903590;29;20052;-95
2021/01/15 06:16:28;;;;;;;66.97;7.13;;;-0.60;99.90;;;;;;4906155;29;20020;-96
2021/01/15 06:19:08;;;;;;;23.48;6.40;;;-0.70;99.90;;;;;;4905633;29;20021;-95
2021/01/15 06:21:57;;;;;;;23.58;7.13;;;-0.60;99.90;;;;;;4897944;29;20032;-95
2021/01/15 06:28:23;;;;;;;20.40;7.35;;;-0.50;99.90;;;;;;4906960;29;20055;-94
2021/01/15 06:31:14;;;;;;;26.83;7.15;;;-0.40;99.90;;;;;;4878969;29;20113;-95
2021/01/15 06:34:06;;;;;;;27.83;7.70;;;-0.40;99.90;;;;;;4868080;29;20072;-96
2021/01/15 06:37:23;;;;;;;55.42;9.77;;;-0.40;99.90;;;;;;4868305;29;20139;-95
2021/01/15 06:40:13;;;;;;;68.55;8.50;;;-0.40;99.90;;;;;;4839564;29;20104;-94
2021/01/15 06:42:47;;;;;;;34.20;7.65;;;-0.50;99.90;;;;;;4869688;29;20048;-95
2021/01/15 06:45:14;;;;;;;24.50;8.13;;;-0.60;99.90;;;;;;4870129;29;20033;-94
2021/01/15 06:47:46;;;;;;;34.92;8.05;;;-0.50;99.90;;;;;;4869725;29;20033;-95
2021/01/15 06:50:23;;;;;;;77.85;7.90;;;-0.60;99.90;;;;;;4868360;29;20032;-96
2021/01/15 06:53:15;;;;;;;26.35;8.30;;;-0.60;99.90;;;;;;4868332;29;20432;-96
2021/01/15 06:55:50;;;;;;;27.00;8.00;;;-0.60;99.90;;;;;;4868614;29;20043;-95
2021/01/15 06:58:20;;;;;;;41.17;8.90;;;-0.60;99.90;;;;;;4869521;29;20391;-95
2021/01/15 07:00:59;;;;;;;78.43;13.23;;;-0.60;99.90;;;;;;4869541;29;20033;-94
2021/01/15 07:04:01;;;;;;;39.20;7.53;;;-0.60;99.90;;;;;;4869605;29;20104;-94
2021/01/15 07:06:55;;;;;;;35.13;7.28;;;-0.70;99.90;;;;;;4870507;29;20077;-94
2021/01/15 07:09:26;;;;;;;35.33;7.38;;;-0.70;99.90;;;;;;4869926;29;20041;-93
2021/01/15 07:11:55;;;;;;;97.25;9.63;;;-0.70;99.90;;;;;;4868823;29;20033;-95
2021/01/15 07:14:27;;;;;;;36.63;7.40;;;-0.80;99.90;;;;;;4869309;29;20475;-94
2021/01/15 07:16:57;;;;;;;23.02;7.47;;;-0.80;99.90;;;;;;4870685;29;20041;-94
2021/01/15 07:20:09;;;;;;;25.80;8.02;;;-0.80;99.90;;;;;;4872734;29;20037;-95
2021/01/15 07:22:56;;;;;;;32.63;8.88;;;-0.80;99.90;;;;;;4850441;29;20052;-95
2021/01/15 07:25:25;;;;;;;65.82;12.45;;;-0.80;99.90;;;;;;4851835;29;20041;-95
2021/01/15 07:28:10;;;;;;;37.20;8.93;;;-0.80;99.90;;;;;;4864911;29;20100;-94
2021/01/15 07:31:05;;;;;;;52.90;9.45;;;-0.80;99.90;;;;;;4851658;29;20048;-95
2021/01/15 07:33:34;;;;;;;79.30;8.80;;;-0.90;99.90;;;;;;4892874;29;20061;-95
2021/01/15 07:36:03;;;;;;;98.43;9.10;;;-0.90;99.90;;;;;;4892204;29;20144;-94
2021/01/15 07:38:29;;;;;;;67.03;8.63;;;-1.00;99.90;;;;;;4875540;29;20037;-94
2021/01/15 07:40:55;;;;;;;54.65;7.30;;;-1.00;99.90;;;;;;4894506;29;20037;-94
2021/01/15 07:43:33;;;;;;;69.07;8.40;;;-1.10;99.90;;;;;;4893839;29;20052;-94
2021/01/15 07:46:17;;;;;;;30.08;7.88;;;-1.10;99.90;;;;;;4879158;29;20032;-95
2021/01/15 07:49:49;;;;;;;22.15;5.13;;;-1.10;99.90;;;;;;4893233;29;20065;-95
2021/01/15 07:52:18;;;;;;;46.20;8.45;;;-1.10;99.90;;;;;;4878531;29;20033;-94
2021/01/15 07:55:01;;;;;;;20.45;7.68;;;-1.10;99.90;;;;;;4895087;29;20049;-94
2021/01/15 07:57:32;;;;;;;178.00;17.88;;;-1.10;99.90;;;;;;4899950;29;20096;-96
2021/01/15 08:00:25;;;;;;;134.85;10.27;;;-1.10;99.90;;;;;;4902979;29;20020;-96
2021/01/15 08:03:02;;;;;;;76.47;8.30;;;-1.10;99.90;;;;;;4898659;29;20097;-96
2021/01/15 08:05:28;;;;;;;32.00;7.03;;;-1.20;99.90;;;;;;4878603;29;20012;-96
2021/01/15 08:08:05;;;;;;;35.20;7.13;;;-1.20;99.90;;;;;;4894471;29;20044;-95
2021/01/15 08:10:31;;;;;;;141.82;10.90;;;-1.20;99.90;;;;;;4913720;29;20084;-95
2021/01/15 08:13:01;;;;;;;19.08;7.30;;;-1.20;99.90;;;;;;4915671;29;20055;-95
2021/01/15 08:15:35;;;;;;;193.45;11.57;;;-1.30;99.90;;;;;;4913882;29;20025;-93
2021/01/15 08:18:04;;;;;;;84.00;9.25;;;-1.20;99.90;;;;;;4890339;29;20025;-96
2021/01/15 08:23:35;;;;;;;107.95;9.40;;;-1.30;99.90;;;;;;4904874;29;20048;-96
2021/01/15 08:27:32;;;;;;;93.80;8.55;;;-1.20;99.90;;;;;;4888204;29;20126;-96
2021/01/15 11:46:50;;;;;;;76.35;12.93;;;-0.80;99.90;;;;;;5991476;23;20038;-96
2021/01/15 11:49:18;;;;;;;68.32;14.85;;;-0.80;99.90;;;;;;4897967;29;20085;-96
2021/01/15 11:51:44;;;;;;;32.33;11.25;;;-0.80;99.90;;;;;;4893263;29;20041;-96
2021/01/15 11:54:16;;;;;;;30.90;11.57;;;-0.70;99.90;;;;;;4888280;29;20026;-94
2021/01/15 11:56:49;;;;;;;78.60;17.63;;;-0.60;99.90;;;;;;4890214;29;20056;-95
2021/01/15 12:02:09;;;;;;;49.78;11.20;;;-0.50;99.90;;;;;;4947297;23;20135;-95
2021/01/15 12:04:41;;;;;;;49.53;13.07;;;-0.40;99.90;;;;;;4946099;29;20198;-94
2021/01/15 12:07:07;;;;;;;73.32;12.52;;;-0.50;99.90;;;;;;4943397;29;20039;-95
2021/01/15 12:09:33;;;;;;;174.48;20.10;;;-0.50;99.90;;;;;;4942768;29;20032;-95
2021/01/15 12:12:00;;;;;;;59.38;14.70;;;-0.60;99.90;;;;;;4942535;29;20035;-96
2021/01/15 12:14:26;;;;;;;37.78;12.38;;;-0.60;99.90;;;;;;4942274;29;20030;-96
2021/01/15 12:16:52;;;;;;;62.47;11.40;;;-0.60;99.90;;;;;;4941333;29;20040;-95
2021/01/15 12:19:17;;;;;;;108.22;13.60;;;-0.60;99.90;;;;;;4939021;29;20035;-96
2021/01/15 12:21:46;;;;;;;251.77;20.52;;;-0.60;99.90;;;;;;4938799;29;20047;-96
2021/01/15 12:24:13;;;;;;;137.18;14.82;;;-0.60;99.90;;;;;;4923879;29;20532;-96
2021/01/15 12:26:43;;;;;;;107.03;13.45;;;-0.70;99.90;;;;;;4942973;29;20124;-96
2021/01/15 12:29:09;;;;;;;139.93;14.67;;;-0.60;99.90;;;;;;4924103;29;20482;-93
2021/01/15 12:31:35;;;;;;;109.43;15.55;;;-0.60;99.90;;;;;;4940335;29;20034;-94
2021/01/15 12:34:01;;;;;;;131.43;14.35;;;-0.60;99.90;;;;;;4941230;29;20036;-94
2021/01/15 12:36:26;;;;;;;94.07;13.38;;;-0.50;99.90;;;;;;4942518;29;20099;-93
2021/01/15 12:38:52;;;;;;;216.30;20.48;;;-0.60;99.90;;;;;;4942140;29;20035;-95
2021/01/15 12:41:19;;;;;;;44.58;12.93;;;-0.60;99.90;;;;;;4943833;29;20127;-94
2021/01/15 12:43:46;;;;;;;71.65;12.35;;;-0.60;99.90;;;;;;4925594;29;20023;-95
2021/01/15 12:46:13;;;;;;;81.13;12.15;;;-0.60;99.90;;;;;;4924715;29;20028;-96
2021/01/15 12:48:40;;;;;;;43.17;12.68;;;-0.60;99.90;;;;;;4938674;29;20019;-96
2021/01/15 12:51:07;;;;;;;65.90;13.90;;;-0.60;99.90;;;;;;4951602;29;20020;-96
2021/01/15 12:53:34;;;;;;;68.50;16.00;;;-0.50;99.90;;;;;;4961218;29;20024;-95
2021/01/15 12:56:01;;;;;;;121.88;15.80;;;-0.60;99.90;;;;;;4940982;29;20050;-95
2021/01/15 12:58:27;;;;;;;83.25;13.52;;;-0.50;99.90;;;;;;4953229;29;20079;-96
2021/01/15 13:00:55;;;;;;;109.82;14.55;;;-0.50;99.90;;;;;;4946466;29;20056;-95
2021/01/15 13:03:23;;;;;;;64.32;13.23;;;-0.40;99.90;;;;;;4931008;29;20111;-93
2021/01/15 13:05:49;;;;;;;44.25;12.75;;;-0.40;99.90;;;;;;4944504;29;20056;-95
2021/01/15 13:08:15;;;;;;;69.30;13.82;;;-0.30;99.90;;;;;;4940827;29;20043;-94
2021/01/15 13:10:47;;;;;;;81.60;12.13;;;-0.10;99.90;;;;;;4961138;29;20015;-95
2021/01/15 13:13:14;;;;;;;86.10;13.68;;;-0.10;99.90;;;;;;4951816;29;20031;-94
2021/01/15 13:15:40;;;;;;;52.45;12.60;;;0.00;99.90;;;;;;4942938;29;20040;-94
2021/01/15 13:18:06;;;;;;;47.63;11.82;;;0.00;99.90;;;;;;4925221;29;20028;-95
2021/01/15 13:20:31;;;;;;;43.20;11.55;;;0.10;99.90;;;;;;4940237;29;20032;-94
2021/01/15 13:23:08;;;;;;;23.50;10.13;;;0.00;99.90;;;;;;4939590;29;20070;-93
2021/01/15 13:25:36;;;;;;;42.50;10.05;;;0.10;99.90;;;;;;4923107;29;20166;-94
2021/01/15 13:28:04;;;;;;;31.65;10.88;;;0.20;99.90;;;;;;4928332;29;20513;-95
2021/01/15 13:30:31;;;;;;;22.20;10.25;;;0.30;99.90;;;;;;4926526;29;20024;-93
2021/01/15 13:32:59;;;;;;;24.80;10.00;;;0.40;99.90;;;;;;4928014;29;20481;-93
2021/01/15 13:35:25;;;;;;;49.50;9.68;;;0.60;99.90;;;;;;4924542;29;20067;-96
2021/01/15 13:37:53;;;;;;;72.38;10.90;;;0.60;99.90;;;;;;4927391;29;20071;-94
2021/01/15 13:40:19;;;;;;;29.55;10.52;;;0.60;99.90;;;;;;4929820;29;20043;-94
2021/01/15 13:42:45;;;;;;;65.78;18.48;;;0.50;99.90;;;;;;4935195;29;20035;-95
2021/01/15 13:45:14;;;;;;;135.73;19.92;;;0.50;99.90;;;;;;4928497;29;20051;-95
2021/01/15 13:47:40;;;;;;;66.30;16.73;;;0.50;99.90;;;;;;4926577;29;20027;-96
2021/01/15 13:50:12;;;;;;;101.35;21.92;;;0.50;99.90;;;;;;4930612;29;20032;-94
2021/01/15 13:52:41;;;;;;;88.03;22.30;;;0.40;99.90;;;;;;4928142;29;20028;-95
2021/01/15 13:55:07;;;;;;;109.43;26.92;;;0.30;99.90;;;;;;4929525;29;20051;-95
2021/01/15 13:57:33;;;;;;;115.57;27.88;;;0.30;99.90;;;;;;4926824;29;20024;-93
2021/01/15 13:59:59;;;;;;;65.57;19.77;;;0.20;99.90;;;;;;4927626;29;20063;-93
2021/01/15 14:02:24;;;;;;;139.23;20.35;;;0.20;99.90;;;;;;4924937;29;20509;-95
2021/01/15 14:04:50;;;;;;;193.07;25.17;;;0.10;99.90;;;;;;4930361;29;20131;-95
2021/01/15 14:07:16;;;;;;;92.93;25.30;;;0.00;99.90;;;;;;4926613;29;20036;-94
2021/01/15 14:09:43;;;;;;;112.28;29.67;;;-0.10;99.90;;;;;;4929685;29;20034;-96
2021/01/15 14:12:09;;;;;;;132.65;30.55;;;-0.10;99.90;;;;;;4921038;29;20028;-93
2021/01/15 14:14:35;;;;;;;137.23;27.02;;;-0.20;99.90;;;;;;4913981;29;20032;-94
2021/01/15 14:17:02;;;;;;;114.25;25.45;;;-0.20;99.90;;;;;;4929374;29;20051;-93
2021/01/15 14:19:28;;;;;;;68.97;18.77;;;-0.30;99.90;;;;;;4938083;29;20036;-94
2021/01/15 14:21:55;;;;;;;60.65;16.30;;;-0.30;99.90;;;;;;4939510;29;20482;-96
2021/01/15 14:24:21;;;;;;;102.80;18.67;;;-0.40;99.90;;;;;;4926274;29;20028;-95
2021/01/15 14:26:46;;;;;;;68.10;16.50;;;-0.30;99.90;;;;;;4939893;29;20078;-93
2021/01/15 14:29:12;;;;;;;66.78;16.08;;;-0.40;99.90;;;;;;4933568;29;20087;-94
2021/01/15 14:31:39;;;;;;;76.85;15.20;;;-0.50;99.90;;;;;;4937812;29;20042;-94
2021/01/15 14:34:07;;;;;;;42.97;14.65;;;-0.60;99.90;;;;;;4938538;29;20042;-95
2021/01/15 14:36:40;;;;;;;168.75;19.48;;;-0.70;99.90;;;;;;4916407;29;20050;-94
2021/01/15 14:39:15;;;;;;;306.15;23.63;;;-0.70;99.90;;;;;;4937994;29;20036;-95
2021/01/15 14:41:45;;;;;;;119.43;21.65;;;-0.70;99.90;;;;;;4940890;29;20039;-94
2021/01/15 14:44:13;;;;;;;68.20;19.08;;;-0.70;99.90;;;;;;4925643;29;20242;-93
2021/01/15 14:46:41;;;;;;;87.45;20.27;;;-0.70;99.90;;;;;;4915955;29;20047;-94
2021/01/15 14:49:08;;;;;;;47.20;17.27;;;-0.70;99.90;;;;;;4916573;29;20445;-95
2021/01/15 14:51:37;;;;;;;91.70;18.77;;;-0.60;99.90;;;;;;4922473;29;20516;-94
2021/01/15 14:54:04;;;;;;;78.80;14.82;;;-0.50;99.90;;;;;;4921133;29;20067;-94
2021/01/15 14:56:31;;;;;;;60.53;15.43;;;-0.50;99.90;;;;;;4919950;29;20032;-94
2021/01/15 14:58:57;;;;;;;63.42;14.88;;;-0.50;99.90;;;;;;4919959;29;20024;-94
2021/01/15 15:01:23;;;;;;;60.90;14.80;;;-0.40;99.90;;;;;;4920417;29;20052;-95
2021/01/15 15:03:49;;;;;;;55.03;15.10;;;-0.50;99.90;;;;;;4939653;29;20036;-94
2021/01/15 15:06:27;;;;;;;75.97;15.52;;;-0.50;99.90;;;;;;4921171;29;20034;-95
2021/01/15 15:08:56;;;;;;;61.33;14.80;;;-0.50;99.90;;;;;;4920853;29;20028;-94
2021/01/15 15:11:28;;;;;;;59.25;13.50;;;-0.50;99.90;;;;;;4921384;29;20042;-94
2021/01/15 15:13:55;;;;;;;43.75;14.02;;;-0.50;99.90;;;;;;4920648;29;20051;-93
2021/01/15 15:16:21;;;;;;;44.03;14.43;;;-0.50;99.90;;;;;;4921512;29;20045;-94
2021/01/15 15:18:47;;;;;;;50.10;13.55;;;-0.50;99.90;;;;;;4920353;29;20477;-95
2021/01/15 15:21:14;;;;;;;39.30;13.18;;;-0.50;99.90;;;;;;4936369;29;20032;-95
2021/01/15 15:23:40;;;;;;;35.15;12.68;;;-0.50;99.90;;;;;;4921616;29;20035;-95
2021/01/15 15:26:05;;;;;;;47.15;16.77;;;-0.50;99.90;;;;;;4939084;29;20039;-94
2021/01/15 15:28:32;;;;;;;50.75;17.48;;;-0.40;99.90;;;;;;4901030;29;20156;-94
2021/01/15 15:31:00;;;;;;;49.42;18.35;;;-0.40;99.90;;;;;;4920494;29;20020;-94
2021/01/15 15:33:33;;;;;;;50.80;18.35;;;-0.40;99.90;;;;;;4920677;29;20039;-94
2021/01/15 15:36:02;;;;;;;46.30;16.98;;;-0.40;99.90;;;;;;4922230;29;20119;-94
2021/01/15 15:38:28;;;;;;;45.55;17.23;;;-0.40;99.90;;;;;;4922020;29;20024;-96
2021/01/15 15:40:55;;;;;;;37.35;15.00;;;-0.40;99.90;;;;;;4924571;29;20035;-93
2021/01/15 15:43:23;;;;;;;35.42;13.43;;;-0.40;99.90;;;;;;4922480;29;20024;-94
2021/01/15 15:45:50;;;;;;;35.83;13.50;;;-0.50;99.90;;;;;;4922169;29;20406;-93
2021/01/15 15:48:16;;;;;;;36.85;14.27;;;-0.60;99.90;;;;;;4924775;29;20027;-93
2021/01/15 15:50:42;;;;;;;38.20;13.98;;;-0.60;99.90;;;;;;4924613;29;20493;-93
2021/01/15 15:53:08;;;;;;;32.55;12.77;;;-0.60;99.90;;;;;;4923722;29;20080;-94
2021/01/15 15:55:34;;;;;;;41.45;14.00;;;-0.60;99.90;;;;;;4924285;29;20036;-93
2021/01/15 15:58:00;;;;;;;34.85;12.98;;;-0.70;99.90;;;;;;4918548;29;20034;-94
2021/01/15 16:00:29;;;;;;;39.17;13.80;;;-0.70;99.90;;;;;;4925805;29;20047;-93
2021/01/15 16:02:55;;;;;;;33.28;12.93;;;-0.70;99.90;;;;;;4912253;29;20032;-93
2021/01/15 16:05:23;;;;;;;34.22;13.93;;;-0.60;99.90;;;;;;4923929;29;20032;-93
2021/01/15 16:07:51;;;;;;;36.15;14.27;;;-0.60;99.90;;;;;;4913477;29;20111;-92
2021/01/15 16:10:16;;;;;;;38.75;14.23;;;-0.60;99.90;;;;;;4913089;29;20060;-93
2021/01/15 16:12:42;;;;;;;39.38;15.45;;;-0.40;99.90;;;;;;4910835;29;20032;-93
2021/01/15 16:15:08;;;;;;;38.65;15.18;;;-0.40;99.90;;;;;;4914785;29;20033;-93
2021/01/15 16:17:38;;;;;;;41.13;14.68;;;-0.30;99.90;;;;;;4926009;29;20434;-94
2021/01/15 16:20:07;;;;;;;30.88;12.13;;;-0.30;99.90;;;;;;4911092;29;20035;-91
2021/01/15 16:22:33;;;;;;;39.95;13.18;;;-0.20;99.90;;;;;;4913429;29;20036;-93
2021/01/15 16:24:59;;;;;;;33.80;13.55;;;-0.10;99.90;;;;;;4911526;29;20394;-94
2021/01/15 16:27:26;;;;;;;38.30;13.48;;;-0.10;99.90;;;;;;4911989;29;20160;-92
2021/01/15 16:29:52;;;;;;;32.58;12.57;;;-0.10;99.90;;;;;;4912172;29;20024;-92
2021/01/15 16:32:19;;;;;;;34.17;11.38;;;0.00;99.90;;;;;;4923026;29;20031;-93
2021/01/15 16:34:45;;;;;;;29.63;11.23;;;0.00;99.90;;;;;;4937321;29;20520;-94
2021/01/15 16:37:10;;;;;;;30.23;12.02;;;0.10;99.90;;;;;;4915991;29;20032;-92
2021/01/15 16:39:37;;;;;;;26.83;11.90;;;0.10;99.90;;;;;;4940094;29;20022;-93
2021/01/15 16:42:05;;;;;;;29.35;10.60;;;0.10;99.90;;;;;;4925587;29;20032;-92